createdAt,value
2022-12-16T00:00:16.138Z,99001.44
2022-12-16T00:02:44.212Z,99022.56
2022-12-16T00:05:12.096Z,99005.16
2022-12-16T00:07:39.830Z,99034.38
2022-12-16T00:10:09.023Z,99023.22
2022-12-16T00:12:36.788Z,98926.03
2022-12-16T00:15:05.165Z,99041.44
2022-12-16T00:17:33.036Z,99012.84
2022-12-16T00:20:03.051Z,98968.03
2022-12-16T00:22:31.205Z,99001.22
2022-12-16T00:24:59.190Z,98995.44
2022-12-16T00:27:26.922Z,98951.25
2022-12-16T00:29:54.954Z,99017.78
2022-12-16T00:32:23.011Z,99008.25
2022-12-16T00:34:50.686Z,99029.75
2022-12-16T00:37:19.741Z,98989.56
2022-12-16T00:39:47.587Z,99026.25
2022-12-16T00:42:15.195Z,99017.50
2022-12-16T00:44:42.910Z,98988.63
2022-12-16T00:47:10.664Z,99025.00
2022-12-16T00:49:38.422Z,99038.94
2022-12-16T00:52:06.224Z,99002.69
2022-12-16T00:54:34.028Z,99024.25
2022-12-16T00:57:01.614Z,98977.97
2022-12-16T00:59:29.351Z,99020.78
2022-12-16T01:01:57.782Z,99019.00
2022-12-16T01:04:27.020Z,99003.19
2022-12-16T01:06:54.916Z,99038.81
2022-12-16T01:09:23.419Z,99034.53
2022-12-16T01:11:51.643Z,99034.97
2022-12-16T01:14:19.671Z,98996.88
2022-12-16T01:16:47.398Z,99047.31
2022-12-16T01:19:15.405Z,99015.41
2022-12-16T01:21:43.149Z,99015.91
2022-12-16T01:24:11.854Z,99000.09
2022-12-16T01:26:39.661Z,99055.00
2022-12-16T01:29:07.476Z,99041.94
2022-12-16T01:31:35.372Z,99067.19
2022-12-16T01:34:03.388Z,99058.22
2022-12-16T01:36:31.164Z,99064.13
2022-12-16T01:38:58.934Z,99013.84
2022-12-16T01:41:28.791Z,99089.75
2022-12-16T01:44:18.021Z,99050.25
2022-12-16T01:46:56.694Z,99078.06
2022-12-16T01:49:50.815Z,99089.59
2022-12-16T01:52:23.692Z,99051.09
2022-12-16T01:55:00.082Z,99060.81
2022-12-16T01:57:38.419Z,99049.47
2022-12-16T02:00:06.919Z,99055.25
2022-12-16T02:02:44.120Z,99094.56
2022-12-16T02:05:21.316Z,99080.50
2022-12-16T02:08:13.093Z,99088.50
2022-12-16T02:10:43.933Z,99105.16
2022-12-16T02:13:33.842Z,99117.13
2022-12-16T02:16:09.985Z,99109.53
2022-12-16T02:19:22.577Z,99129.47
2022-12-16T02:22:23.603Z,99141.16
2022-12-16T02:25:22.913Z,99144.34
2022-12-16T02:27:54.975Z,99144.19
2022-12-16T02:30:44.050Z,99133.00
2022-12-16T02:33:36.292Z,99151.06
2022-12-16T02:36:30.821Z,99157.28
2022-12-16T02:39:12.768Z,99130.13
2022-12-16T02:41:52.995Z,99160.16
2022-12-16T02:44:54.267Z,99162.25
2022-12-16T02:47:22.151Z,99142.75
2022-12-16T02:49:53.498Z,99149.78
2022-12-16T02:52:33.145Z,99171.03
2022-12-16T02:55:09.700Z,99091.59
2022-12-16T02:58:00.595Z,99115.91
2022-12-16T03:00:38.813Z,99182.72
2022-12-16T03:03:17.646Z,99193.47
2022-12-16T03:05:48.796Z,99193.31
2022-12-16T03:08:25.784Z,99169.34
2022-12-16T03:11:00.574Z,99131.75
2022-12-16T03:13:33.460Z,99154.44
2022-12-16T03:16:02.738Z,99200.84
2022-12-16T03:18:30.942Z,99177.50
2022-12-16T03:21:07.998Z,99165.31
2022-12-16T03:23:41.863Z,99201.16
2022-12-16T03:26:15.955Z,99202.59
2022-12-16T03:28:56.462Z,99200.53
2022-12-16T03:31:46.229Z,99207.56
2022-12-16T03:34:22.024Z,99215.72
2022-12-16T03:36:54.129Z,99208.81
2022-12-16T03:39:23.584Z,99210.41
2022-12-16T03:41:54.435Z,99210.25
2022-12-16T03:44:25.677Z,99169.03
2022-12-16T03:46:53.702Z,99192.84
2022-12-16T03:49:23.217Z,99216.34
2022-12-16T03:51:51.122Z,99163.84
2022-12-16T03:54:19.281Z,99216.50
2022-12-16T03:56:47.820Z,99203.25
2022-12-16T03:59:15.447Z,99169.47
2022-12-16T04:01:43.977Z,99215.22
2022-12-16T04:04:11.891Z,99202.44
2022-12-16T04:06:39.795Z,99223.72
2022-12-16T04:09:07.616Z,99223.53
2022-12-16T04:11:53.843Z,99177.19
2022-12-16T04:14:39.984Z,99221.63
2022-12-16T04:17:32.054Z,99220.50
2022-12-16T04:20:18.206Z,99221.94
2022-12-16T04:23:04.621Z,99174.72
2022-12-16T04:25:36.848Z,99195.53
2022-12-16T04:28:04.593Z,99220.03
2022-12-16T04:30:36.623Z,99232.38
2022-12-16T04:33:32.490Z,99224.69
2022-12-16T04:36:19.719Z,99242.59
2022-12-16T04:39:06.025Z,99220.00
2022-12-16T04:41:52.517Z,99247.56
2022-12-16T04:44:39.042Z,99204.63
2022-12-16T04:47:26.465Z,99231.03
2022-12-16T04:50:13.084Z,99189.09
2022-12-16T04:52:59.404Z,99236.78
2022-12-16T04:55:45.508Z,99255.03
2022-12-16T04:58:31.733Z,99254.88
2022-12-16T05:01:18.466Z,99267.72
2022-12-16T05:04:06.165Z,99221.09
2022-12-16T05:06:52.387Z,99285.63
2022-12-16T05:09:38.698Z,99265.09
2022-12-16T05:12:24.735Z,99267.34
2022-12-16T05:15:28.043Z,99280.81
2022-12-16T05:18:14.614Z,99283.97
2022-12-16T05:21:01.085Z,99262.69
2022-12-16T05:23:47.216Z,99290.38
2022-12-16T05:26:33.757Z,99277.88
2022-12-16T05:29:30.926Z,99253.38
2022-12-16T05:32:17.305Z,99207.41
2022-12-16T05:35:05.241Z,99270.50
2022-12-16T05:37:52.331Z,99262.66
2022-12-16T05:40:38.739Z,99305.06
2022-12-16T05:43:24.935Z,99263.13
2022-12-16T05:46:15.771Z,99279.59
2022-12-16T05:49:02.346Z,99310.31
2022-12-16T05:51:48.411Z,99300.75
2022-12-16T05:54:34.402Z,99278.31
2022-12-16T05:57:20.663Z,99284.88
2022-12-16T06:00:07.142Z,99320.88
2022-12-16T06:02:58.474Z,99330.97
2022-12-16T06:05:44.764Z,99285.81
2022-12-16T06:08:30.978Z,99327.59
2022-12-16T06:11:17.031Z,99342.69
2022-12-16T06:14:03.320Z,99344.44
2022-12-16T06:16:57.296Z,99362.56
2022-12-16T06:19:43.732Z,99342.69
2022-12-16T06:22:30.063Z,99364.03
2022-12-16T06:25:16.313Z,99353.75
2022-12-16T06:28:07.685Z,99331.81
2022-12-16T06:30:54.917Z,99339.78
2022-12-16T06:33:42.523Z,99346.09
2022-12-16T06:36:29.283Z,99358.09
2022-12-16T06:39:15.445Z,99335.00
2022-12-16T06:42:02.054Z,99324.44
2022-12-16T06:44:48.420Z,99370.75
2022-12-16T06:47:34.793Z,99295.94
2022-12-16T06:50:21.200Z,99332.81
2022-12-16T06:53:07.420Z,99366.44
2022-12-16T06:56:08.028Z,99366.44
2022-12-16T06:58:54.357Z,99319.94
2022-12-16T07:01:40.582Z,99383.72
2022-12-16T07:04:26.860Z,99371.69
2022-12-16T07:07:13.186Z,99349.41
2022-12-16T07:09:59.575Z,99361.53
2022-12-16T07:12:45.771Z,99405.28
2022-12-16T07:15:31.902Z,99412.69
2022-12-16T07:18:19.049Z,99409.63
2022-12-16T07:21:05.409Z,99407.03
2022-12-16T07:23:51.495Z,99432.50
2022-12-16T07:26:38.955Z,99434.13
2022-12-16T07:29:26.268Z,99390.41
2022-12-16T07:32:13.953Z,99408.00
2022-12-16T07:35:00.167Z,99432.69
2022-12-16T07:37:46.528Z,99440.34
2022-12-16T07:40:32.882Z,99423.34
2022-12-16T07:43:19.420Z,99453.34
2022-12-16T07:46:05.999Z,99428.66
2022-12-16T07:48:52.065Z,99408.31
2022-12-16T07:51:38.938Z,99408.31
2022-12-16T07:54:26.301Z,99421.63
2022-12-16T07:57:12.714Z,99409.59
2022-12-16T07:59:59.182Z,99450.63
2022-12-16T08:02:45.639Z,99460.41
2022-12-16T08:05:31.754Z,99462.13
2022-12-16T08:08:18.121Z,99447.91
2022-12-16T08:11:04.293Z,99448.03
2022-12-16T08:13:50.472Z,99446.44
2022-12-16T08:16:36.812Z,99451.53
2022-12-16T08:19:23.081Z,99448.13
2022-12-16T08:22:09.313Z,99474.59
2022-12-16T08:24:56.185Z,99464.00
2022-12-16T08:27:43.153Z,99473.97
2022-12-16T08:30:32.094Z,99460.97
2022-12-16T08:33:21.350Z,99512.59
2022-12-16T08:36:07.545Z,99480.19
2022-12-16T08:38:54.953Z,99507.75
2022-12-16T08:41:42.108Z,99512.56
2022-12-16T08:44:28.342Z,99535.16
2022-12-16T08:47:14.492Z,99525.88
2022-12-16T08:50:02.567Z,99524.25
2022-12-16T08:52:50.841Z,99518.16
2022-12-16T08:55:37.184Z,99470.94
2022-12-16T08:58:23.289Z,99541.72
2022-12-16T09:01:09.728Z,99536.56
2022-12-16T09:03:56.763Z,99534.78
2022-12-16T09:06:42.900Z,99567.50
2022-12-16T09:09:29.805Z,99580.31
2022-12-16T09:12:16.330Z,99563.47
2022-12-16T09:15:02.643Z,99572.97
2022-12-16T09:17:48.936Z,99585.44
2022-12-16T09:20:35.296Z,99585.75
2022-12-16T09:23:22.934Z,99533.75
2022-12-16T09:26:09.669Z,99577.41
2022-12-16T09:28:56.486Z,99569.03
2022-12-16T09:31:56.708Z,99594.59
2022-12-16T09:34:43.633Z,99601.16
2022-12-16T09:37:31.414Z,99582.53
2022-12-16T09:40:17.987Z,99610.44
2022-12-16T09:43:07.824Z,99613.00
2022-12-16T09:46:21.002Z,99589.91
2022-12-16T09:49:28.430Z,99608.22
2022-12-16T09:52:18.461Z,99593.88
2022-12-16T09:55:08.253Z,99588.59
2022-12-16T09:57:57.394Z,99591.94
2022-12-16T10:00:47.432Z,99580.69
2022-12-16T10:03:52.511Z,99605.41
2022-12-16T10:06:50.084Z,99632.22
2022-12-16T10:10:36.906Z,99634.13
2022-12-16T10:13:37.116Z,99629.63
2022-12-16T10:16:42.433Z,99624.66
2022-12-16T10:19:49.041Z,99636.19
2022-12-16T10:22:57.844Z,99640.69
2022-12-16T10:26:10.355Z,99626.47
2022-12-16T10:29:23.191Z,99604.94
2022-12-16T10:32:12.373Z,99629.84
2022-12-16T10:35:00.170Z,99594.38
2022-12-16T10:37:53.462Z,99595.00
2022-12-16T10:40:46.893Z,99619.25
2022-12-16T10:44:04.221Z,99580.91
2022-12-16T10:46:53.426Z,99625.25
2022-12-16T10:49:41.091Z,99591.97
2022-12-16T10:52:30.794Z,99598.25
2022-12-16T10:55:42.952Z,99626.84
2022-12-16T10:58:55.276Z,99624.75
2022-12-16T11:01:46.722Z,99609.16
2022-12-16T11:04:55.663Z,99603.88
2022-12-16T11:07:51.213Z,99615.25
2022-12-16T11:11:01.500Z,99552.03
2022-12-16T11:13:48.731Z,99612.72
2022-12-16T11:16:44.641Z,99600.97
2022-12-16T11:19:46.336Z,99584.75
2022-12-16T11:22:41.363Z,99587.81
2022-12-16T11:25:38.697Z,99608.03
2022-12-16T11:28:36.592Z,99569.63
2022-12-16T11:31:26.910Z,99596.16
2022-12-16T11:34:14.734Z,99576.03
2022-12-16T11:37:03.278Z,99592.16
2022-12-16T11:39:52.503Z,99601.59
2022-12-16T11:42:42.944Z,99612.03
2022-12-16T11:45:34.668Z,99620.22
2022-12-16T11:48:40.557Z,99603.88
2022-12-16T11:51:32.645Z,99569.47
2022-12-16T11:54:34.104Z,99598.75
2022-12-16T11:57:25.021Z,99603.69
2022-12-16T12:00:20.663Z,99585.56
2022-12-16T12:03:30.148Z,99607.38
2022-12-16T12:06:45.615Z,99527.88
2022-12-16T12:09:36.750Z,99549.56
2022-12-16T12:12:37.370Z,99605.63
2022-12-16T12:15:29.026Z,99613.31
2022-12-16T12:18:36.921Z,99608.06
2022-12-16T12:21:39.651Z,99594.44
2022-12-16T12:24:44.674Z,99603.41
2022-12-16T12:27:52.691Z,99599.56
2022-12-16T12:30:41.575Z,99605.16
2022-12-16T12:33:59.664Z,99603.25
2022-12-16T12:37:13.159Z,99559.47
2022-12-16T12:40:35.220Z,99599.00
2022-12-16T12:43:30.552Z,99596.84
2022-12-16T12:46:29.952Z,99595.09
2022-12-16T12:49:16.327Z,99592.03
2022-12-16T12:52:41.051Z,99578.25
2022-12-16T12:55:34.528Z,99588.50
2022-12-16T12:58:22.665Z,99573.09
2022-12-16T13:01:17.139Z,99563.94
2022-12-16T13:04:19.186Z,99562.69
2022-12-16T13:07:05.846Z,99572.44
2022-12-16T13:09:54.450Z,99562.19
2022-12-16T13:12:40.824Z,99580.84
2022-12-16T13:15:38.352Z,99582.44
2022-12-16T13:18:25.038Z,99587.25
2022-12-16T13:21:21.831Z,99497.72
2022-12-16T13:24:10.943Z,99572.44
2022-12-16T13:27:20.795Z,99597.19
2022-12-16T13:30:27.855Z,99567.66
2022-12-16T13:33:37.248Z,99566.50
2022-12-16T13:36:25.060Z,99545.78
2022-12-16T13:39:15.014Z,99602.28
2022-12-16T13:42:01.405Z,99600.69
2022-12-16T13:45:03.045Z,99595.25
2022-12-16T13:47:50.050Z,99590.75
2022-12-16T13:51:18.006Z,99588.69
2022-12-16T13:54:11.507Z,99586.13
2022-12-16T13:57:07.946Z,99596.53
2022-12-16T13:59:59.385Z,99578.41
2022-12-16T14:02:55.085Z,99607.59
2022-12-16T14:05:56.653Z,99590.59
2022-12-16T14:08:44.742Z,99614.50
2022-12-16T14:11:41.800Z,99578.19
2022-12-16T14:15:04.858Z,99571.50
2022-12-16T14:18:18.057Z,99610.00
2022-12-16T14:21:13.444Z,99629.56
2022-12-16T14:24:07.941Z,99618.97
2022-12-16T14:26:56.332Z,99624.38
2022-12-16T14:29:48.406Z,99585.03
2022-12-16T14:32:50.777Z,99635.47
2022-12-16T14:35:54.288Z,99583.41
2022-12-16T14:38:48.754Z,99634.69
2022-12-16T14:41:44.131Z,99640.28
2022-12-16T14:44:50.156Z,99649.75
2022-12-16T14:47:38.686Z,99639.66
2022-12-16T14:50:41.397Z,99657.44
2022-12-16T14:53:37.969Z,99652.63
2022-12-16T14:56:40.859Z,99674.75
2022-12-16T14:59:28.145Z,99662.41
2022-12-16T15:02:18.077Z,99641.97
2022-12-16T15:05:06.280Z,99678.75
2022-12-16T15:07:56.360Z,99676.47
2022-12-16T15:10:46.439Z,99620.41
2022-12-16T15:13:37.599Z,99678.91
2022-12-16T15:16:25.910Z,99640.63
2022-12-16T15:19:18.846Z,99696.03
2022-12-16T15:22:06.788Z,99696.69
2022-12-16T15:24:57.992Z,99700.19
2022-12-16T15:27:52.419Z,99693.59
2022-12-16T15:31:01.542Z,99628.34
2022-12-16T15:33:50.902Z,99677.97
2022-12-16T15:36:44.737Z,99718.97
2022-12-16T15:39:43.458Z,99711.91
2022-12-16T15:42:49.112Z,99731.59
2022-12-16T15:45:50.446Z,99710.44
2022-12-16T15:48:41.870Z,99731.28
2022-12-16T15:52:01.793Z,99734.81
2022-12-16T15:54:48.830Z,99731.13
2022-12-16T15:57:50.159Z,99740.78
2022-12-16T16:00:41.107Z,99710.50
2022-12-16T16:03:46.638Z,99750.22
2022-12-16T16:06:42.342Z,99748.28
2022-12-16T16:09:43.321Z,99763.38
2022-12-16T16:12:31.498Z,99733.63
2022-12-16T16:15:18.259Z,99767.53
2022-12-16T16:18:07.424Z,99765.94
2022-12-16T16:20:54.083Z,99757.25
2022-12-16T16:23:40.059Z,99768.81
2022-12-16T16:26:30.311Z,99736.63
2022-12-16T16:29:16.605Z,99716.56
2022-12-16T16:32:06.033Z,99765.53
2022-12-16T16:34:52.140Z,99769.69
2022-12-16T16:37:40.005Z,99759.22
2022-12-16T16:40:37.317Z,99788.31
2022-12-16T16:43:23.754Z,99790.56
2022-12-16T16:46:13.141Z,99763.69
2022-12-16T16:49:00.515Z,99778.28
2022-12-16T16:51:46.796Z,99768.13
2022-12-16T16:54:33.214Z,99749.84
2022-12-16T16:57:20.682Z,99804.19
2022-12-16T17:00:07.132Z,99775.50
2022-12-16T17:02:53.347Z,99803.50
2022-12-16T17:05:43.259Z,99784.34
2022-12-16T17:08:29.655Z,99808.19
2022-12-16T17:11:16.058Z,99769.38
2022-12-16T17:14:02.200Z,99788.88
2022-12-16T17:16:48.333Z,99819.25
2022-12-16T17:19:45.244Z,99794.31
2022-12-16T17:22:31.596Z,99815.38
2022-12-16T17:25:17.727Z,99810.88
2022-12-16T17:28:04.622Z,99809.19
2022-12-16T17:30:50.883Z,99831.41
2022-12-16T17:33:37.797Z,99831.41
2022-12-16T17:36:29.996Z,99791.31
2022-12-16T17:39:16.474Z,99824.00
2022-12-16T17:42:03.418Z,99832.81
2022-12-16T17:44:49.633Z,99776.47
2022-12-16T17:47:52.580Z,99791.03
2022-12-16T17:50:38.504Z,99824.34
2022-12-16T17:53:24.751Z,99764.03
2022-12-16T17:56:11.367Z,99838.94
2022-12-16T17:58:58.208Z,99845.97
2022-12-16T18:01:45.600Z,99847.41
2022-12-16T18:04:48.843Z,99852.44
2022-12-16T18:07:34.826Z,99857.25
2022-12-16T18:10:21.270Z,99847.53
2022-12-16T18:13:08.292Z,99869.38
2022-12-16T18:15:54.509Z,99800.81
2022-12-16T18:18:46.196Z,99811.56
2022-12-16T18:21:33.284Z,99861.34
2022-12-16T18:24:25.062Z,99872.72
2022-12-16T18:27:11.938Z,99876.25
2022-12-16T18:29:58.241Z,99876.88
2022-12-16T18:32:44.628Z,99889.69
2022-12-16T18:35:31.316Z,99862.50
2022-12-16T18:38:17.582Z,99868.25
2022-12-16T18:41:03.900Z,99882.91
2022-12-16T18:43:50.178Z,99835.09
2022-12-16T18:46:36.462Z,99891.72
2022-12-16T18:49:22.730Z,99905.81
2022-12-16T18:52:09.111Z,99901.88
2022-12-16T18:54:55.217Z,99878.13
2022-12-16T18:57:41.268Z,99883.59
2022-12-16T19:00:28.860Z,99887.91
2022-12-16T19:03:29.021Z,99890.25
2022-12-16T19:06:15.779Z,99868.94
2022-12-16T19:09:01.848Z,99934.38
2022-12-16T19:11:48.171Z,99889.66
2022-12-16T19:14:34.452Z,99919.00
2022-12-16T19:17:21.449Z,99931.09
2022-12-16T19:20:07.677Z,99939.38
2022-12-16T19:22:53.854Z,99931.03
2022-12-16T19:25:42.833Z,99939.38
2022-12-16T19:28:34.154Z,99943.91
2022-12-16T19:31:20.563Z,99945.19
2022-12-16T19:34:07.033Z,99899.00
2022-12-16T19:36:53.442Z,99952.00
2022-12-16T19:39:39.993Z,99964.56
2022-12-16T19:42:26.420Z,99946.09
2022-12-16T19:45:12.645Z,99967.31
2022-12-16T19:47:59.002Z,99960.19
2022-12-16T19:50:45.925Z,99952.97
2022-12-16T19:53:32.377Z,99947.78
2022-12-16T19:56:20.153Z,100010.16
2022-12-16T19:59:06.191Z,100014.63
2022-12-16T20:01:54.822Z,99942.88
2022-12-16T20:04:41.433Z,100033.88
2022-12-16T20:07:28.598Z,99992.84
2022-12-16T20:10:14.869Z,100007.75
2022-12-16T20:13:01.427Z,100013.69
2022-12-16T20:15:47.624Z,100014.22
2022-12-16T20:18:33.823Z,100018.84
2022-12-16T20:21:21.650Z,100003.16
2022-12-16T20:24:08.010Z,99990.84
2022-12-16T20:26:55.361Z,100020.88
2022-12-16T20:29:41.592Z,99999.25
2022-12-16T20:32:27.965Z,100054.03
2022-12-16T20:35:14.190Z,100025.53
2022-12-16T20:38:00.448Z,100049.41
2022-12-16T20:40:46.831Z,100056.34
2022-12-16T20:43:32.912Z,100061.00
2022-12-16T20:46:19.464Z,100057.06
2022-12-16T20:49:05.561Z,100051.84
2022-12-16T20:51:52.084Z,100062.94
2022-12-16T20:54:39.464Z,100014.13
2022-12-16T20:57:26.478Z,100056.28
2022-12-16T21:00:12.776Z,100091.25
2022-12-16T21:02:59.704Z,100103.66
2022-12-16T21:05:46.086Z,100062.81
2022-12-16T21:08:32.128Z,100083.81
2022-12-16T21:11:18.577Z,100091.56
2022-12-16T21:14:21.620Z,100046.63
2022-12-16T21:17:07.662Z,100093.00
2022-12-16T21:19:53.966Z,100111.22
2022-12-16T21:22:43.000Z,100080.06
2022-12-16T21:25:29.111Z,100126.97
2022-12-16T21:28:18.881Z,100117.69
2022-12-16T21:31:05.267Z,100081.38
2022-12-16T21:33:51.524Z,100135.84
2022-12-16T21:36:38.053Z,100094.19
2022-12-16T21:39:24.667Z,100088.53
2022-12-16T21:42:10.892Z,100079.75
2022-12-16T21:44:57.287Z,100122.53
2022-12-16T21:47:43.742Z,100141.88
2022-12-16T21:50:30.136Z,100158.63
2022-12-16T21:53:16.423Z,100138.25
2022-12-16T21:56:10.423Z,100169.59
2022-12-16T21:58:56.618Z,100167.56
2022-12-16T22:01:42.855Z,100132.25
2022-12-16T22:04:29.137Z,100144.75
2022-12-16T22:07:15.545Z,100150.78
2022-12-16T22:10:02.475Z,100188.38
2022-12-16T22:12:51.283Z,100212.16
2022-12-16T22:15:38.555Z,100213.28
2022-12-16T22:18:25.180Z,100210.22
2022-12-16T22:21:20.157Z,100200.25
2022-12-16T22:24:07.083Z,100230.50
2022-12-16T22:26:53.885Z,100165.16
2022-12-16T22:29:43.101Z,100200.00
2022-12-16T22:32:29.535Z,100187.97
2022-12-16T22:35:15.780Z,100238.84
2022-12-16T22:38:02.131Z,100242.31
2022-12-16T22:40:48.537Z,100224.00
2022-12-16T22:43:34.818Z,100224.50
2022-12-16T22:46:22.516Z,100239.06
2022-12-16T22:49:08.785Z,100229.88
2022-12-16T22:51:55.903Z,100246.72
2022-12-16T22:54:43.719Z,100221.78
2022-12-16T22:57:30.125Z,100206.94
2022-12-16T23:00:16.542Z,100185.53
2022-12-16T23:03:02.673Z,100234.59
2022-12-16T23:05:48.987Z,100248.72
2022-12-16T23:08:35.288Z,100246.09
2022-12-16T23:11:21.994Z,100223.75
2022-12-16T23:14:08.317Z,100210.03
2022-12-16T23:16:56.145Z,100213.69
2022-12-16T23:19:47.284Z,100219.69
2022-12-16T23:22:33.612Z,100248.06
2022-12-16T23:25:19.997Z,100230.31
2022-12-16T23:28:06.133Z,100241.09
2022-12-16T23:30:52.863Z,100207.28
2022-12-16T23:33:40.105Z,100229.94
2022-12-16T23:36:26.325Z,100205.41
2022-12-16T23:39:12.846Z,100217.75
2022-12-16T23:41:58.897Z,100256.03
2022-12-16T23:44:45.369Z,100222.00
2022-12-16T23:47:31.493Z,100241.69
2022-12-16T23:50:17.589Z,100247.06
2022-12-16T23:53:05.327Z,100245.03
2022-12-16T23:55:51.747Z,100216.34
2022-12-16T23:58:38.212Z,100225.97
